Погода Калинино (Уза)на неделю

Гомельская область, Белоруссия

21 - 27 мая
  • 21мая
    Сегодня
    +13°
    +26°
    Облачно с прояснениями
    ВремяПогодаТемператураВлажностьДавлениеВетер, м/сВероятность осадков
    00:00Практически безоблачно+15°C85 %751 мм0.8 м/с2 %
    03:00Практически безоблачно+14°C86 %751 мм0.6 м/с2 %
    06:00Облачно с прояснениями+14°C82 %751 мм0.7 м/с2 %
    09:00Облачно с прояснениями+19°C71 %752 мм1.4 м/с2 %
    12:00Облачно с прояснениями+23°C47 %752 мм2.0 м/с2 %
    15:00Облачно с прояснениями+25°C39 %751 мм2.3 м/с8 %
    18:00Облачно с прояснениями+25°C48 %750 мм2.1 м/с13 %
    21:00Облачно с прояснениями+21°C70 %751 мм1.0 м/с4 %
  • 22мая
    Среда
    +14°
    +26°
    Облачно с прояснениями
    ВремяПогодаТемператураВлажностьДавлениеВетер, м/сВероятность осадков
    00:00Облачно с прояснениями+17°C73 %751 мм0.7 м/с2 %
    03:00Облачно с прояснениями+15°C79 %751 мм0.6 м/с2 %
    06:00Облачно с прояснениями+14°C78 %751 мм0.7 м/с5 %
    09:00Практически безоблачно+20°C65 %752 мм1.4 м/с6 %
    12:00Ясно и безоблачно+25°C45 %752 мм1.9 м/с4 %
    15:00Облачно с прояснениями+25°C41 %751 мм2.2 м/с10 %
    18:00Небольшая облачность+25°C46 %751 мм0.8 м/с23 %
    21:00Практически безоблачно+21°C67 %751 мм0.8 м/с12 %
  • 23мая
    Четверг
    +13°
    +24°
    Пасмурно, дожди с грозами
    ВремяПогодаТемператураВлажностьДавлениеВетер, м/сВероятность осадков
    00:00Ясно и безоблачно+17°C73 %751 мм0.8 м/с3 %
    03:00Ясно и безоблачно+16°C87 %752 мм0.8 м/с3 %
    06:00Ясно и безоблачно+15°C90 %753 мм1.0 м/с4 %
    09:00Ясно и безоблачно+20°C75 %753 мм2.1 м/с7 %
    12:00Небольшая облачность, ливень+24°C66 %754 мм2.4 м/с39 %
    15:00Пасмурно, дожди с грозами+24°C52 %754 мм2.9 м/с66 %
    18:00Небольшая облачность, ливень+23°C66 %754 мм2.9 м/с65 %
    21:00Практически безоблачно+20°C65 %755 мм1.7 м/с7 %
  • 24мая
    Пятница
    +11°
    +25°
    Ясно и безоблачно
    ВремяПогодаТемператураВлажностьДавлениеВетер, м/сВероятность осадков
    00:00Ясно и безоблачно+17°C65 %755 мм1.9 м/с2 %
    03:00Ясно и безоблачно+15°C64 %756 мм1.7 м/с2 %
    06:00Ясно и безоблачно+13°C62 %757 мм1.5 м/с2 %
    09:00Ясно и безоблачно+18°C55 %758 мм2.6 м/с2 %
    12:00Ясно и безоблачно+22°C51 %759 мм3.0 м/с2 %
    15:00Ясно и безоблачно+25°C46 %758 мм3.4 м/с3 %
    18:00Ясно и безоблачно+24°C46 %757 мм3.4 м/с4 %
    21:00Ясно и безоблачно+21°C55 %758 мм1.8 м/с3 %
  • 25мая
    Суббота
    +11°
    +25°
    Ясно и безоблачно
    ВремяПогодаТемператураВлажностьДавлениеВетер, м/сВероятность осадков
    00:00Ясно и безоблачно+16°C57 %759 мм1.4 м/с2 %
    03:00Ясно и безоблачно+14°C53 %759 мм1.2 м/с2 %
    06:00Ясно и безоблачно+12°C54 %759 мм1.1 м/с5 %
    09:00Ясно и безоблачно+18°C48 %760 мм2.1 м/с5 %
    12:00Ясно и безоблачно+23°C34 %760 мм2.7 м/с5 %
    15:00Ясно и безоблачно+24°C31 %759 мм3.0 м/с3 %
    18:00Ясно и безоблачно+24°C34 %758 мм2.7 м/с8 %
    21:00Ясно и безоблачно+19°C54 %758 мм1.2 м/с4 %
Мы используем cookies
Соглашаюсь